Time;durP1;ratioP1;P1;durP2;ratioP2;P2;SDS_P1;SDS_P2;PMS_P1;PMS_P2;Temp;Humidity;BMP_temperature;BMP_pressure;BME280_temperature;BME280_humidity;BME280_pressure;Samples;Min_cycle;Max_cycle;Signal;HPM_P1;HPM_P2
2021/07/29 00:00:47;;;;;;;7.53;2.78;;;;;;;17.13;56.26;99521.72;10368102;28;20049;-60
2021/07/29 00:05:50;;;;;;;7.55;3.05;;;;;;;17.09;56.10;99507.16;10368156;28;20050;-59
2021/07/29 00:10:51;;;;;;;4.53;2.75;;;;;;;16.95;56.01;99507.59;10366688;28;20129;-60
2021/07/29 00:15:53;;;;;;;8.25;2.72;;;;;;;16.88;56.17;99514.41;10358993;28;20073;-60
2021/07/29 00:20:55;;;;;;;5.20;2.78;;;;;;;16.79;56.39;99502.06;10366376;28;20125;-60
2021/07/29 00:25:57;;;;;;;5.47;2.80;;;;;;;16.80;57.35;99504.56;10367059;28;20064;-60
2021/07/29 00:30:58;;;;;;;7.57;3.03;;;;;;;16.85;57.29;99483.81;10366882;28;20076;-60
2021/07/29 00:36:00;;;;;;;5.63;2.83;;;;;;;16.81;57.51;99476.34;10366409;28;20054;-59
2021/07/29 00:41:02;;;;;;;8.30;3.05;;;;;;;16.79;58.28;99484.38;10367350;28;20141;-60
2021/07/29 00:46:03;;;;;;;6.20;3.00;;;;;;;16.90;58.13;99484.25;10356573;28;20517;-59
2021/07/29 00:51:06;;;;;;;6.93;3.10;;;;;;;16.93;57.75;99478.69;10345702;28;20052;-60
2021/07/29 00:56:08;;;;;;;5.25;3.08;;;;;;;17.00;57.38;99481.56;10365855;28;20054;-60
2021/07/29 01:01:09;;;;;;;7.95;2.60;;;;;;;16.95;57.21;99478.53;10365329;28;20410;-60
2021/07/29 01:06:11;;;;;;;6.15;2.90;;;;;;;17.02;57.50;99466.41;10364905;28;20529;-60
2021/07/29 01:11:13;;;;;;;5.70;2.80;;;;;;;17.12;56.65;99459.28;10365033;28;20137;-60
2021/07/29 01:16:15;;;;;;;5.72;2.70;;;;;;;17.22;56.20;99453.97;10363031;28;20145;-60
2021/07/29 01:21:16;;;;;;;7.82;3.10;;;;;;;17.30;56.23;99452.25;10365188;28;20128;-60
2021/07/29 01:26:18;;;;;;;5.22;2.75;;;;;;;17.27;56.58;99449.06;10363734;28;20141;-60
2021/07/29 01:31:20;;;;;;;5.03;2.60;;;;;;;17.33;56.75;99444.06;10379072;28;20128;-60
2021/07/29 01:36:22;;;;;;;5.97;2.90;;;;;;;17.39;56.34;99443.50;10364068;28;20046;-60
2021/07/29 01:41:24;;;;;;;5.53;2.95;;;;;;;17.35;57.00;99443.94;10363931;28;21049;-60
2021/07/29 01:46:25;;;;;;;4.68;2.80;;;;;;;17.34;57.19;99450.22;10361945;28;20118;-59
2021/07/29 01:51:27;;;;;;;8.30;2.90;;;;;;;17.21;57.58;99442.56;10363531;28;20128;-60
2021/07/29 01:56:30;;;;;;;7.13;2.97;;;;;;;17.17;57.41;99443.84;10363548;28;20129;-60
2021/07/29 02:01:32;;;;;;;9.20;2.97;;;;;;;17.13;56.54;99439.81;10379851;28;20537;-60
2021/07/29 02:06:35;;;;;;;5.70;3.00;;;;;;;17.28;56.55;99448.94;10370866;28;20104;-60
2021/07/29 02:11:37;;;;;;;6.53;2.80;;;;;;;17.32;55.55;99449.50;10369433;28;20080;-60
2021/07/29 02:16:41;;;;;;;6.03;3.20;;;;;;;17.31;55.59;99456.56;10370058;28;20046;-60
2021/07/29 02:21:44;;;;;;;7.07;3.28;;;;;;;17.20;55.53;99450.66;10370947;28;20104;-60
2021/07/29 02:26:46;;;;;;;6.15;2.85;;;;;;;17.12;56.12;99453.19;10370422;28;20050;-60
2021/07/29 02:31:47;;;;;;;11.07;3.20;;;;;;;17.08;56.22;99451.81;10370273;28;20544;-60
2021/07/29 02:36:50;;;;;;;5.03;2.80;;;;;;;17.11;56.45;99462.06;10369183;28;20053;-60
2021/07/29 02:41:51;;;;;;;6.40;2.88;;;;;;;17.07;56.86;99465.97;10369097;28;20466;-60
2021/07/29 02:46:53;;;;;;;5.70;3.05;;;;;;;16.80;57.03;99467.59;10352406;28;20054;-59
2021/07/29 02:51:55;;;;;;;7.40;3.60;;;;;;;16.76;57.68;99465.38;10385320;28;20085;-60
2021/07/29 02:56:56;;;;;;;7.18;3.25;;;;;;;16.60;58.01;99465.13;10369528;28;20093;-60
2021/07/29 03:01:58;;;;;;;6.78;3.25;;;;;;;16.37;58.44;99455.78;10368933;28;20129;-60
2021/07/29 03:07:00;;;;;;;6.20;3.20;;;;;;;16.27;59.07;99473.41;10364861;28;20054;-60
2021/07/29 03:12:02;;;;;;;5.85;3.30;;;;;;;16.14;59.67;99469.25;10362144;28;20105;-60
2021/07/29 03:17:03;;;;;;;7.95;3.33;;;;;;;16.04;60.14;99465.78;10361727;28;20054;-60
2021/07/29 03:22:05;;;;;;;6.20;3.40;;;;;;;15.96;60.16;99473.53;10362082;28;20053;-60
2021/07/29 03:27:09;;;;;;;7.15;3.45;;;;;;;15.88;60.60;99473.38;10362415;28;20057;-60
2021/07/29 03:32:11;;;;;;;11.57;3.60;;;;;;;15.78;61.43;99469.91;10362352;28;20153;-60
2021/07/29 03:37:13;;;;;;;5.68;3.45;;;;;;;15.76;61.71;99471.84;10354514;28;20049;-60
2021/07/29 03:42:14;;;;;;;8.02;3.22;;;;;;;15.88;61.41;99485.72;10361201;28;20144;-59
2021/07/29 03:47:16;;;;;;;9.23;3.50;;;;;;;16.04;61.04;99486.88;10362201;28;20133;-59
2021/07/29 03:52:18;;;;;;;6.25;3.55;;;;;;;16.22;60.87;99481.78;10369266;28;20052;-59
2021/07/29 03:57:23;;;;;;;7.97;3.53;;;;;;;16.37;60.63;99485.66;10369157;28;20045;-59
2021/07/29 04:02:24;;;;;;;6.80;3.40;;;;;;;16.44;60.41;99491.25;10368553;28;20492;-60
2021/07/29 04:07:26;;;;;;;6.45;3.58;;;;;;;16.49;59.46;99491.69;10367984;28;20585;-59
2021/07/29 04:12:29;;;;;;;7.38;3.40;;;;;;;16.55;59.73;99488.47;10351943;28;20046;-60
2021/07/29 04:17:30;;;;;;;5.47;3.25;;;;;;;16.67;59.57;99501.38;10367582;28;20141;-59
2021/07/29 04:22:34;;;;;;;7.78;3.30;;;;;;;16.78;59.61;99508.31;10368030;28;20120;-59
2021/07/29 04:27:35;;;;;;;6.28;3.95;;;;;;;16.78;59.07;99500.38;10367562;28;20478;-59
2021/07/29 04:32:37;;;;;;;11.27;3.58;;;;;;;16.87;59.24;99502.19;10366506;28;20573;-59
2021/07/29 04:37:39;;;;;;;5.28;3.08;;;;;;;16.90;59.04;99508.00;10366896;28;20129;-59
2021/07/29 04:42:41;;;;;;;8.70;3.30;;;;;;;17.01;58.93;99518.44;10366302;28;20124;-59
2021/07/29 04:47:42;;;;;;;6.47;3.63;;;;;;;17.30;58.44;99520.16;10367132;28;20137;-59
2021/07/29 04:52:44;;;;;;;7.07;3.47;;;;;;;17.66;57.17;99501.69;10366685;28;20128;-60
2021/07/29 04:57:46;;;;;;;7.55;3.20;;;;;;;20.34;51.85;99508.78;10365819;28;20508;-59
2021/07/29 05:02:52;;;;;;;5.68;3.00;;;;;;;21.17;48.41;99497.78;10366091;28;20124;-59
2021/07/29 05:07:54;;;;;;;7.82;3.03;;;;;;;22.37;45.82;99503.66;10366309;28;20050;-60
2021/07/29 05:12:55;;;;;;;7.28;3.00;;;;;;;24.37;41.37;99494.50;10365307;28;20075;-60
2021/07/29 05:17:57;;;;;;;5.47;2.75;;;;;;;23.96;41.28;99486.22;10364805;28;20735;-60
2021/07/29 05:22:59;;;;;;;4.72;2.80;;;;;;;23.21;42.21;99493.59;10364904;28;20650;-60
2021/07/29 05:28:00;;;;;;;6.30;2.80;;;;;;;22.46;43.57;99503.41;10364423;28;20124;-60
2021/07/29 05:33:04;;;;;;;4.13;2.75;;;;;;;21.97;44.40;99504.69;10363800;28;20058;-60
2021/07/29 05:38:06;;;;;;;6.60;3.08;;;;;;;21.50;44.86;99514.53;10363468;28;20072;-60
2021/07/29 05:43:08;;;;;;;6.80;2.80;;;;;;;20.87;46.42;99517.94;10354990;28;20844;-60
2021/07/29 05:48:09;;;;;;;6.30;2.78;;;;;;;20.36;47.04;99522.72;10361808;28;20054;-59
2021/07/29 05:53:11;;;;;;;9.70;3.00;;;;;;;19.92;48.09;99527.41;10362202;28;20137;-60
2021/07/29 05:58:13;;;;;;;5.57;2.78;;;;;;;19.97;48.17;99533.06;10363000;28;20127;-60
2021/07/29 06:03:15;;;;;;;11.52;3.28;;;;;;;19.91;48.23;99536.38;10362681;28;20144;-60
2021/07/29 06:08:17;;;;;;;4.47;2.75;;;;;;;20.15;47.95;99539.09;10357579;28;20453;-60
2021/07/29 06:13:18;;;;;;;8.23;3.10;;;;;;;20.06;47.92;99532.94;10361047;28;20130;-60
2021/07/29 06:18:23;;;;;;;6.57;2.90;;;;;;;20.04;48.04;99529.59;10362862;28;20046;-60
2021/07/29 06:23:25;;;;;;;5.90;2.70;;;;;;;20.02;48.19;99531.59;10353379;28;20053;-59
2021/07/29 06:28:31;;;;;;;5.15;2.72;;;;;;;20.08;48.17;99530.09;10361523;28;20133;-59
2021/07/29 06:33:33;;;;;;;6.80;2.90;;;;;;;20.31;47.90;99531.16;10363379;28;20125;-60
2021/07/29 06:38:38;;;;;;;7.07;3.00;;;;;;;20.37;47.79;99524.38;10361241;28;20057;-60
2021/07/29 06:43:40;;;;;;;6.03;2.60;;;;;;;20.61;46.98;99535.03;10362968;28;20064;-60
2021/07/29 06:48:41;;;;;;;7.78;2.88;;;;;;;20.76;46.18;99531.59;10362765;28;20125;-59
2021/07/29 06:53:43;;;;;;;6.07;2.75;;;;;;;20.86;46.05;99540.22;10375970;28;20120;-60
2021/07/29 06:58:45;;;;;;;9.27;2.90;;;;;;;21.11;45.49;99548.19;10356106;28;20129;-60
2021/07/29 07:03:48;;;;;;;6.45;2.50;;;;;;;21.61;44.70;99544.28;10333555;28;20039;-60
2021/07/29 07:08:49;;;;;;;10.52;2.70;;;;;;;22.08;43.99;99546.13;10335501;28;20057;-59
2021/07/29 07:13:51;;;;;;;5.47;2.70;;;;;;;22.00;43.77;99544.28;10332196;28;20129;-59
2021/07/29 07:18:53;;;;;;;6.65;2.83;;;;;;;22.27;43.04;99541.16;10332637;28;20274;-60
2021/07/29 07:23:55;;;;;;;6.82;2.80;;;;;;;22.16;43.50;99549.56;10350171;28;20551;-60
2021/07/29 07:28:58;;;;;;;7.43;2.83;;;;;;;21.92;43.85;99539.81;10344169;28;20495;-60
2021/07/29 07:34:00;;;;;;;7.63;2.90;;;;;;;21.97;43.79;99547.28;10373627;28;20073;-60
2021/07/29 07:39:02;;;;;;;6.82;2.60;;;;;;;21.80;43.71;99541.19;10353008;28;20046;-60
2021/07/29 07:44:04;;;;;;;8.27;2.92;;;;;;;22.24;43.37;99551.34;10362389;28;20116;-60
2021/07/29 07:49:06;;;;;;;7.72;2.63;;;;;;;21.88;43.67;99559.00;10337904;28;20046;-60
2021/07/29 07:54:08;;;;;;;7.72;3.15;;;;;;;21.17;45.01;99558.94;10338252;28;20128;-60
2021/07/29 07:59:10;;;;;;;6.10;2.78;;;;;;;21.65;44.66;99553.59;10356613;28;20482;-60
2021/07/29 08:04:12;;;;;;;10.25;2.88;;;;;;;21.68;44.48;99549.75;10339258;28;20518;-60
2021/07/29 08:09:13;;;;;;;8.45;2.70;;;;;;;21.21;44.81;99562.13;10340224;28;20054;-60
2021/07/29 08:14:15;;;;;;;6.20;2.60;;;;;;;21.01;45.62;99567.78;10343383;28;20495;-60
2021/07/29 08:19:17;;;;;;;5.65;3.13;;;;;;;20.72;46.34;99567.44;10338257;28;20442;-60
2021/07/29 08:24:19;;;;;;;7.70;2.85;;;;;;;21.86;44.38;99569.00;10345332;28;20132;-60
2021/07/29 08:29:20;;;;;;;6.10;2.60;;;;;;;22.94;40.56;99541.41;10347592;28;20564;-60
2021/07/29 08:34:22;;;;;;;4.72;2.30;;;;;;;22.55;40.31;99550.34;10365870;28;20089;-59
2021/07/29 08:39:24;;;;;;;6.45;2.40;;;;;;;22.91;39.99;99555.91;10359675;28;20128;-59
2021/07/29 08:44:26;;;;;;;5.45;2.67;;;;;;;24.02;38.40;99551.44;10360996;28;20141;-59
2021/07/29 08:49:28;;;;;;;4.97;2.40;;;;;;;25.64;35.10;99546.03;10342964;28;20057;-59
2021/07/29 08:54:29;;;;;;;8.15;2.30;;;;;;;25.30;34.90;99542.47;10348568;28;20488;-59
2021/07/29 08:59:31;;;;;;;5.45;2.20;;;;;;;24.53;35.86;99544.25;10364712;28;20077;-59
2021/07/29 09:04:33;;;;;;;6.28;2.30;;;;;;;23.84;37.38;99551.81;10361116;28;20056;-59
2021/07/29 09:09:49;;;;;;;5.07;2.20;;;;;;;23.18;37.90;99562.53;10356735;28;20168;-59
2021/07/29 09:14:53;;;;;;;5.30;2.20;;;;;;;22.82;38.74;99556.16;10345737;28;20050;-59
2021/07/29 09:19:56;;;;;;;5.05;2.00;;;;;;;23.58;37.38;99556.78;10362388;28;20035;-59
2021/07/29 09:25:04;;;;;;;6.45;2.20;;;;;;;24.07;36.45;99559.75;10345227;28;20100;-59
2021/07/29 09:30:09;;;;;;;4.88;2.47;;;;;;;24.79;35.15;99566.75;10358081;28;20092;-60
2021/07/29 09:35:11;;;;;;;5.30;2.00;;;;;;;24.50;35.44;99563.31;10357594;28;20169;-59
2021/07/29 09:40:13;;;;;;;8.25;2.30;;;;;;;24.98;34.64;99555.38;10331408;28;20157;-59
2021/07/29 09:45:31;;;;;;;7.82;2.17;;;;;;;25.04;33.28;99553.78;10358366;28;20050;-59
2021/07/29 09:50:35;;;;;;;4.83;2.17;;;;;;;24.92;34.11;99561.50;10353016;28;20042;-60
2021/07/29 09:55:37;;;;;;;6.07;1.98;;;;;;;24.53;33.78;99570.97;10336627;28;20165;-60
2021/07/29 10:00:39;;;;;;;5.25;2.00;;;;;;;24.64;33.61;99567.78;10361715;28;20051;-59
2021/07/29 10:05:47;;;;;;;4.40;1.88;;;;;;;25.18;32.21;99568.94;10337341;28;20453;-59
2021/07/29 10:10:49;;;;;;;5.78;1.80;;;;;;;25.12;32.33;99555.50;10328934;28;20137;-60
2021/07/29 10:15:50;;;;;;;3.15;1.63;;;;;;;25.03;31.60;99552.16;10363280;28;20132;-59
2021/07/29 10:21:25;;;;;;;3.70;1.60;;;;;;;25.14;31.21;99554.31;10362991;28;20041;-60
2021/07/29 10:26:34;;;;;;;6.53;1.80;;;;;;;25.13;30.69;99547.28;10322425;28;20479;-60
2021/07/29 10:31:51;;;;;;;3.25;1.77;;;;;;;25.00;29.75;99547.16;10356806;28;20133;-59
2021/07/29 10:36:58;;;;;;;4.90;1.95;;;;;;;25.02;30.65;99562.00;10361883;28;20084;-60
2021/07/29 10:42:01;;;;;;;4.88;1.98;;;;;;;25.44;30.79;99550.44;10362702;28;20132;-60
2021/07/29 10:47:05;;;;;;;2.75;1.70;;;;;;;25.39;30.52;99566.25;10363056;28;20080;-60
2021/07/29 10:52:08;;;;;;;8.20;1.70;;;;;;;24.93;30.99;99565.03;10362495;28;20491;-59
2021/07/29 10:57:12;;;;;;;9.43;1.90;;;;;;;24.61;31.62;99568.19;10366903;28;20231;-60
2021/07/29 11:02:17;;;;;;;4.95;1.88;;;;;;;24.44;31.18;99566.75;10383669;28;20052;-60
2021/07/29 11:07:19;;;;;;;4.15;1.75;;;;;;;24.33;31.50;99572.59;10370777;28;20046;-59
2021/07/29 11:12:21;;;;;;;7.72;1.85;;;;;;;24.19;32.00;99571.59;10366796;28;20446;-59
2021/07/29 11:17:23;;;;;;;4.35;1.83;;;;;;;24.10;32.71;99583.44;10368953;28;20124;-59
2021/07/29 11:22:25;;;;;;;5.95;1.90;;;;;;;23.94;32.80;99576.38;10368447;28;20076;-59
2021/07/29 11:27:31;;;;;;;7.30;1.83;;;;;;;24.01;32.90;99571.13;10355046;28;20663;-59
2021/07/29 11:32:46;;;;;;;4.13;1.90;;;;;;;24.29;31.74;99564.94;10368330;28;20054;-59
2021/07/29 11:37:48;;;;;;;4.13;1.55;;;;;;;23.97;32.19;99577.88;10332122;28;20077;-59
2021/07/29 11:42:51;;;;;;;4.65;1.73;;;;;;;24.32;32.83;99574.44;10330857;28;20506;-59
2021/07/29 11:47:53;;;;;;;7.72;1.80;;;;;;;24.25;32.07;99563.66;10335217;28;20498;-59
2021/07/29 11:52:55;;;;;;;2.97;1.60;;;;;;;24.85;30.59;99565.16;10345378;28;20049;-60
2021/07/29 11:58:03;;;;;;;8.80;1.77;;;;;;;25.12;29.10;99569.72;10367141;28;20129;-60
2021/07/29 12:03:06;;;;;;;3.83;1.63;;;;;;;24.88;29.51;99562.91;10368023;28;20049;-59
2021/07/29 12:08:08;;;;;;;3.10;1.42;;;;;;;24.99;29.49;99577.63;10367955;28;20507;-59
2021/07/29 12:13:10;;;;;;;4.55;1.80;;;;;;;24.81;29.06;99582.59;10367597;28;20045;-59
2021/07/29 12:18:16;;;;;;;3.60;1.73;;;;;;;24.90;29.71;99576.09;10367912;28;20141;-59
2021/07/29 12:23:18;;;;;;;4.15;1.70;;;;;;;24.76;30.52;99582.34;10332530;28;20134;-59
2021/07/29 12:28:43;;;;;;;4.68;1.63;;;;;;;24.45;30.61;99584.47;10337173;28;20141;-60
2021/07/29 12:33:54;;;;;;;5.07;1.98;;;;;;;24.24;31.13;99578.06;10340285;28;20050;-59
2021/07/29 12:38:58;;;;;;;6.30;1.90;;;;;;;24.05;31.73;99570.59;10365205;28;20406;-60
2021/07/29 12:44:17;;;;;;;4.43;1.73;;;;;;;23.54;31.99;99568.84;10332466;28;20376;-59
2021/07/29 12:49:20;;;;;;;4.13;1.80;;;;;;;23.83;32.73;99571.53;10341594;28;20129;-59
2021/07/29 12:54:21;;;;;;;3.65;1.70;;;;;;;24.08;31.42;99580.91;10366138;28;20053;-60
2021/07/29 12:59:23;;;;;;;3.90;1.80;;;;;;;24.19;31.37;99566.25;10365410;28;20129;-59
2021/07/29 13:04:28;;;;;;;3.33;1.60;;;;;;;24.34;30.32;99571.56;10362435;28;20138;-59
2021/07/29 13:09:30;;;;;;;3.72;1.73;;;;;;;24.41;30.64;99567.16;10363119;28;20077;-59
2021/07/29 13:14:32;;;;;;;3.67;1.60;;;;;;;24.84;30.83;99563.50;10364759;28;20142;-59
2021/07/29 13:19:34;;;;;;;4.55;1.80;;;;;;;24.62;31.65;99561.81;10349865;28;20051;-59
2021/07/29 13:24:35;;;;;;;4.00;1.70;;;;;;;23.97;31.58;99570.69;10357676;28;20413;-59
2021/07/29 13:29:37;;;;;;;9.27;1.80;;;;;;;23.83;30.99;99571.53;10346054;28;20085;-59
2021/07/29 13:34:39;;;;;;;3.45;1.60;;;;;;;23.70;31.15;99576.69;10325938;28;20141;-59
2021/07/29 13:39:43;;;;;;;3.30;1.60;;;;;;;23.83;31.81;99574.22;10351572;28;20092;-59
2021/07/29 13:44:51;;;;;;;3.95;1.88;;;;;;;24.18;31.62;99557.41;10338863;28;20061;-60
2021/07/29 13:49:53;;;;;;;3.20;1.67;;;;;;;24.23;31.41;99552.34;10325180;28;20137;-60
2021/07/29 13:54:55;;;;;;;3.97;1.73;;;;;;;24.53;31.20;99539.69;10355024;28;20050;-59
2021/07/29 13:59:56;;;;;;;5.45;1.73;;;;;;;23.88;32.49;99549.63;10346032;28;20191;-59
2021/07/29 14:04:58;;;;;;;4.28;1.77;;;;;;;23.72;32.38;99539.94;10362690;28;20145;-59
2021/07/29 14:10:00;;;;;;;4.05;1.67;;;;;;;24.04;31.76;99536.06;10361784;28;20482;-60
2021/07/29 14:15:02;;;;;;;7.20;1.80;;;;;;;24.16;31.52;99538.06;10363342;28;20082;-59
2021/07/29 14:20:25;;;;;;;4.65;2.00;;;;;;;24.63;31.61;99534.06;10363233;28;20591;-60
2021/07/29 14:25:30;;;;;;;4.18;1.60;;;;;;;24.67;30.40;99535.31;10368169;28;20109;-59
2021/07/29 14:30:31;;;;;;;4.50;1.73;;;;;;;24.42;29.99;99528.69;10363230;28;20056;-60
2021/07/29 14:35:34;;;;;;;6.68;1.90;;;;;;;24.67;30.67;99538.00;10377414;28;20076;-59
2021/07/29 14:40:37;;;;;;;5.00;1.85;;;;;;;24.57;30.62;99522.25;10363425;28;20474;-60
2021/07/29 14:46:01;;;;;;;4.20;1.67;;;;;;;24.20;30.74;99528.69;10358745;28;20060;-59
2021/07/29 14:51:01;;;;;;;6.53;2.10;;;;;;;23.81;32.05;99524.66;10362140;28;20136;-59
2021/07/29 14:56:10;;;;;;;9.23;2.00;;;;;;;24.10;32.12;99522.78;10362046;28;20483;-59
2021/07/29 16:10:33;;;;;;;6.95;1.70;;;;;;;24.04;31.71;99495.97;10382689;28;20690;-59
2021/07/29 16:15:35;;;;;;;6.03;1.80;;;;;;;24.61;30.49;99504.00;10366290;28;20067;-58
2021/07/29 16:20:37;;;;;;;8.25;1.90;;;;;;;24.73;30.84;99507.84;10370914;28;20076;-59
2021/07/29 16:25:39;;;;;;;4.55;1.70;;;;;;;23.98;30.81;99494.88;10370727;28;20052;-59
2021/07/29 16:30:41;;;;;;;4.28;1.55;;;;;;;23.56;31.32;99501.94;10343488;28;20061;-59
2021/07/29 16:35:43;;;;;;;5.20;1.70;;;;;;;23.67;32.25;99490.78;10340288;28;20038;-59
2021/07/29 16:40:45;;;;;;;5.20;1.75;;;;;;;23.69;32.10;99484.25;10363176;28;20060;-59
2021/07/29 16:45:46;;;;;;;6.68;1.70;;;;;;;23.58;31.74;99478.53;10364387;28;20050;-60
2021/07/29 16:50:48;;;;;;;4.25;1.80;;;;;;;23.40;31.94;99479.75;10379589;28;20046;-59
2021/07/29 16:55:51;;;;;;;6.90;1.80;;;;;;;23.31;31.67;99479.97;10387165;28;20130;-59
2021/07/29 17:00:53;;;;;;;4.57;1.77;;;;;;;23.25;31.96;99480.72;10344206;28;20562;-59
2021/07/29 17:05:55;;;;;;;6.82;1.77;;;;;;;22.92;32.69;99476.75;10332614;28;20093;-59
2021/07/29 17:10:57;;;;;;;4.03;1.90;;;;;;;22.78;33.22;99486.34;10340539;28;20054;-59
2021/07/29 17:15:59;;;;;;;5.10;1.98;;;;;;;22.83;33.68;99485.81;10332973;28;20480;-59
2021/07/29 17:21:01;;;;;;;4.00;1.58;;;;;;;23.12;33.65;99491.22;10361595;28;20045;-59
2021/07/29 17:26:03;;;;;;;5.47;1.90;;;;;;;23.16;33.35;99495.19;10353371;28;20156;-59
2021/07/29 17:31:05;;;;;;;3.85;1.65;;;;;;;23.10;33.76;99483.41;10320431;28;20072;-59
2021/07/29 17:36:07;;;;;;;4.68;1.70;;;;;;;22.85;33.84;99489.13;10332870;28;20042;-59
2021/07/29 17:41:09;;;;;;;3.35;1.70;;;;;;;22.66;34.48;99488.59;10342820;28;20133;-59
2021/07/29 17:46:11;;;;;;;4.15;1.75;;;;;;;22.73;34.71;99490.53;10333478;28;20136;-59
2021/07/29 17:51:13;;;;;;;4.03;1.70;;;;;;;22.75;35.22;99484.06;10359640;28;20125;-59
2021/07/29 17:56:15;;;;;;;5.65;1.80;;;;;;;22.62;34.89;99481.97;10346993;28;20085;-59
2021/07/29 18:01:16;;;;;;;7.72;2.10;;;;;;;22.41;35.01;99483.66;10334111;28;20141;-59
2021/07/29 18:06:23;;;;;;;5.68;1.80;;;;;;;22.03;35.48;99488.03;10352133;28;20081;-59
2021/07/29 18:11:25;;;;;;;5.85;2.20;;;;;;;21.91;35.96;99489.41;10359133;28;20510;-59
2021/07/29 18:16:26;;;;;;;6.57;1.92;;;;;;;21.87;36.28;99485.44;10346779;28;20112;-59
2021/07/29 18:21:29;;;;;;;5.38;1.92;;;;;;;21.71;36.21;99491.69;10323327;28;20443;-59
2021/07/29 18:26:30;;;;;;;4.57;1.90;;;;;;;21.52;37.24;99485.91;10360537;28;20053;-59
2021/07/29 18:31:32;;;;;;;4.40;1.60;;;;;;;21.39;37.59;99490.97;10361310;28;20510;-59
2021/07/29 18:36:34;;;;;;;5.07;2.03;;;;;;;21.21;37.34;99488.50;10358102;28;20066;-59
2021/07/29 18:41:36;;;;;;;4.75;1.75;;;;;;;21.23;37.73;99490.97;10349152;28;20141;-59
2021/07/29 18:46:38;;;;;;;4.22;1.80;;;;;;;21.05;39.21;99486.69;10360512;28;20042;-59
2021/07/29 18:51:41;;;;;;;4.32;1.70;;;;;;;21.01;39.73;99490.69;10360366;28;20046;-60
2021/07/29 18:56:44;;;;;;;6.05;1.80;;;;;;;20.83;40.36;99490.03;10346450;28;20092;-59
2021/07/29 19:01:45;;;;;;;6.10;1.83;;;;;;;20.73;40.60;99485.88;10341946;28;20054;-58
2021/07/29 19:06:47;;;;;;;5.25;2.00;;;;;;;20.60;41.13;99498.84;10360171;28;20054;-59
2021/07/29 19:11:53;;;;;;;4.25;1.90;;;;;;;20.46;41.02;99494.97;10361511;28;20108;-59
2021/07/29 19:16:55;;;;;;;5.85;1.98;;;;;;;20.22;41.65;99495.78;10361135;28;20244;-59
2021/07/29 19:21:57;;;;;;;5.53;2.10;;;;;;;20.11;42.25;99508.56;10368517;28;20050;-59
2021/07/29 19:26:59;;;;;;;3.88;2.00;;;;;;;20.10;42.55;99512.19;10369110;28;20046;-60
2021/07/29 19:32:01;;;;;;;3.58;1.80;;;;;;;20.00;43.20;99512.34;10369372;28;20141;-59
2021/07/29 19:37:03;;;;;;;4.45;2.10;;;;;;;19.79;44.40;99501.28;10353086;28;20092;-59
2021/07/29 19:42:05;;;;;;;4.57;2.08;;;;;;;19.71;44.93;99522.47;10364434;28;20092;-59
2021/07/29 19:47:07;;;;;;;7.10;3.22;;;;;;;19.57;44.98;99541.66;10330284;28;20057;-59
2021/07/29 19:52:09;;;;;;;4.30;2.28;;;;;;;19.38;46.09;99540.03;10360957;28;20056;-59
2021/07/29 19:57:11;;;;;;;6.68;3.20;;;;;;;19.23;46.41;99546.94;10368334;28;20076;-60
2021/07/29 20:02:12;;;;;;;7.60;3.05;;;;;;;19.09;47.22;99528.09;10341872;28;20474;-60
2021/07/29 20:07:14;;;;;;;6.60;2.50;;;;;;;18.88;47.00;99531.06;10368446;28;20057;-60
2021/07/29 20:12:16;;;;;;;5.78;2.47;;;;;;;18.85;47.36;99541.94;10364023;28;20140;-59
2021/07/29 20:17:17;;;;;;;4.95;2.20;;;;;;;18.77;47.92;99544.53;10368594;28;20081;-60
2021/07/29 20:22:19;;;;;;;10.63;2.55;;;;;;;18.65;48.53;99540.47;10366737;28;20068;-60
2021/07/29 20:27:21;;;;;;;4.35;2.70;;;;;;;18.53;48.82;99545.16;10367649;28;20050;-60
2021/07/29 20:32:24;;;;;;;5.13;2.60;;;;;;;18.37;49.30;99544.16;10358482;28;20059;-60
2021/07/29 20:37:26;;;;;;;6.22;2.90;;;;;;;18.15;49.99;99533.97;10337690;28;20442;-60
2021/07/29 20:42:29;;;;;;;5.95;2.63;;;;;;;17.98;50.68;99529.47;10380973;28;20045;-59
2021/07/29 20:47:31;;;;;;;9.05;4.28;;;;;;;17.81;51.09;99529.28;10341103;28;20161;-60
2021/07/29 20:52:34;;;;;;;6.32;2.95;;;;;;;17.79;51.37;99536.53;10364127;28;20799;-60
2021/07/29 20:57:39;;;;;;;6.55;4.20;;;;;;;17.68;51.78;99534.09;10364348;28;20057;-60
2021/07/29 21:02:42;;;;;;;6.47;3.30;;;;;;;17.64;51.93;99529.25;10347893;28;20049;-59
2021/07/29 21:07:47;;;;;;;7.25;3.13;;;;;;;17.59;52.42;99531.47;10353588;28;20054;-59
2021/07/29 21:12:49;;;;;;;8.20;2.78;;;;;;;17.50;52.46;99535.00;10349863;28;20125;-60
2021/07/29 21:17:51;;;;;;;8.23;2.88;;;;;;;17.47;52.77;99522.06;10361982;28;20096;-59
2021/07/29 21:22:56;;;;;;;9.98;5.50;;;;;;;17.33;53.18;99530.44;10360476;28;20666;-59
2021/07/29 21:27:57;;;;;;;11.10;4.10;;;;;;;17.21;53.57;99532.41;10363229;28;20085;-59
2021/07/29 21:32:59;;;;;;;5.75;3.13;;;;;;;17.11;53.64;99528.97;10353526;28;20065;-60
2021/07/29 21:38:01;;;;;;;7.90;3.33;;;;;;;17.07;53.98;99530.22;10330246;28;20092;-60
2021/07/29 21:43:04;;;;;;;8.20;2.95;;;;;;;16.95;54.37;99531.38;10347277;28;20550;-60
2021/07/29 21:48:07;;;;;;;5.45;3.22;;;;;;;16.74;54.83;99526.25;10364007;28;20164;-60
2021/07/29 21:53:09;;;;;;;7.75;3.00;;;;;;;16.69;55.14;99522.38;10352085;28;20160;-60
2021/07/29 21:58:10;;;;;;;5.90;3.38;;;;;;;16.58;55.16;99511.94;10356656;28;20461;-59
2021/07/29 22:03:13;;;;;;;6.28;3.22;;;;;;;16.48;55.82;99519.88;10349570;28;20757;-59
2021/07/29 22:08:15;;;;;;;6.00;3.28;;;;;;;16.35;56.11;99521.06;10362185;28;20557;-59
2021/07/29 22:13:17;;;;;;;8.20;3.53;;;;;;;16.33;56.21;99509.81;10350343;28;20046;-60
2021/07/29 22:18:19;;;;;;;5.57;3.08;;;;;;;16.29;56.36;99518.97;10325366;28;20141;-59
2021/07/29 22:23:21;;;;;;;7.20;3.00;;;;;;;16.23;56.39;99518.56;10338582;28;20050;-60
2021/07/29 22:28:23;;;;;;;8.65;3.38;;;;;;;16.27;56.24;99520.91;10346354;28;20046;-60
2021/07/29 22:33:27;;;;;;;8.15;3.20;;;;;;;16.22;56.62;99513.44;10333238;28;20050;-60
2021/07/29 22:38:28;;;;;;;7.25;3.25;;;;;;;16.22;56.71;99516.88;10357396;28;20152;-59
2021/07/29 22:43:30;;;;;;;7.28;3.25;;;;;;;16.10;56.78;99517.16;10342093;28;20056;-60
2021/07/29 22:48:32;;;;;;;7.40;3.50;;;;;;;16.04;56.94;99520.34;10350505;28;20060;-60
2021/07/29 22:53:35;;;;;;;6.03;3.30;;;;;;;15.94;57.31;99525.59;10370686;28;20160;-60
2021/07/29 22:58:36;;;;;;;7.53;3.10;;;;;;;15.88;57.69;99526.13;10390492;28;20069;-59
2021/07/29 23:03:38;;;;;;;7.22;3.30;;;;;;;15.77;57.83;99526.25;10375782;28;20482;-60
2021/07/29 23:08:40;;;;;;;6.60;3.50;;;;;;;15.73;57.82;99521.38;10374905;28;20049;-60
2021/07/29 23:13:41;;;;;;;6.47;3.15;;;;;;;15.67;57.83;99519.28;10375686;28;20053;-60
2021/07/29 23:18:43;;;;;;;8.10;3.50;;;;;;;15.61;57.95;99520.66;10372968;28;20046;-60
2021/07/29 23:24:18;;;;;;;6.60;3.45;;;;;;;15.45;58.35;99524.72;10375372;28;20042;-60
2021/07/29 23:29:07;;;;;;;5.95;3.22;;;;;;;15.33;58.88;99522.16;10373664;28;20068;-60
2021/07/29 23:34:08;;;;;;;7.18;3.65;;;;;;;15.33;58.82;99521.31;10375148;28;20042;-60
2021/07/29 23:39:10;;;;;;;5.93;3.20;;;;;;;15.31;59.17;99510.06;10374250;28;20148;-60
2021/07/29 23:44:12;;;;;;;10.20;3.50;;;;;;;15.26;59.13;99517.53;10375032;28;20502;-60
2021/07/29 23:49:13;;;;;;;5.35;3.30;;;;;;;15.25;59.45;99513.22;10373955;28;20053;-59
2021/07/29 23:54:17;;;;;;;6.15;3.42;;;;;;;15.05;59.48;99511.44;10364888;28;20548;-60
2021/07/29 23:59:18;;;;;;;7.45;3.67;;;;;;;14.93;59.77;99509.84;10390109;28;20045;-60
